Time;durP1;ratioP1;P1;durP2;ratioP2;P2;SDS_P1;SDS_P2;PMS_P1;PMS_P2;Temp;Humidity;BMP_temperature;BMP_pressure;BME280_temperature;BME280_humidity;BME280_pressure;Samples;Min_cycle;Max_cycle;Signal;HPM_P1;HPM_P2
2021/11/05 00:02:05;;;;;;;0.00;0.00;;;;;;;12.04;98.23;99353.66;5030607;28;20051;-72
2021/11/05 00:04:30;;;;;;;0.00;0.00;;;;;;;11.98;97.84;99339.47;5031302;28;20093;-73
2021/11/05 00:06:56;;;;;;;0.00;0.00;;;;;;;12.00;98.10;99346.16;5032261;28;20041;-73
2021/11/05 00:09:21;;;;;;;0.00;0.00;;;;;;;12.00;98.35;99342.69;5032555;28;20025;-74
2021/11/05 00:11:47;;;;;;;0.00;0.00;;;;;;;12.02;98.21;99345.88;5030800;28;20041;-75
2021/11/05 00:14:12;;;;;;;0.08;0.08;;;;;;;12.01;98.04;99336.22;5030953;28;20025;-75
2021/11/05 00:16:38;;;;;;;0.00;0.00;;;;;;;11.94;97.18;99338.41;5030829;28;20530;-74
2021/11/05 00:19:03;;;;;;;0.00;0.00;;;;;;;11.88;97.76;99336.81;5030049;28;20550;-74
2021/11/05 00:21:29;;;;;;;0.00;0.00;;;;;;;11.78;98.31;99332.31;5032310;28;20033;-75
2021/11/05 00:23:54;;;;;;;0.00;0.00;;;;;;;11.80;98.41;99347.06;5031895;28;20025;-75
2021/11/05 00:26:20;;;;;;;0.00;0.00;;;;;;;11.75;98.62;99341.72;5031976;28;20033;-75
2021/11/05 00:28:46;;;;;;;0.00;0.00;;;;;;;11.77;99.04;99355.66;5029841;28;20017;-75
2021/11/05 00:31:11;;;;;;;0.00;0.00;;;;;;;11.76;99.23;99347.88;5030592;28;20030;-77
2021/11/05 00:33:36;;;;;;;0.00;0.00;;;;;;;11.76;99.21;99343.31;5030398;28;20025;-77
2021/11/05 00:36:02;;;;;;;0.00;0.00;;;;;;;11.77;98.94;99336.88;5029969;28;20485;-73
2021/11/05 00:38:28;;;;;;;0.00;0.00;;;;;;;11.77;99.08;99328.84;5031267;28;20164;-74
2021/11/05 00:40:53;;;;;;;0.00;0.00;;;;;;;11.75;98.53;99328.31;5031911;28;20030;-74
2021/11/05 00:43:19;;;;;;;0.00;0.00;;;;;;;11.75;98.71;99340.91;5031788;28;20055;-73
2021/11/05 00:45:44;;;;;;;0.00;0.00;;;;;;;11.69;99.12;99330.25;5030307;28;20148;-74
2021/11/05 00:48:10;;;;;;;0.00;0.00;;;;;;;11.66;99.27;99325.41;5031313;28;20091;-73
2021/11/05 00:50:35;;;;;;;0.00;0.00;;;;;;;11.67;99.07;99316.31;5030994;28;20513;-73
2021/11/05 00:53:01;;;;;;;0.00;0.00;;;;;;;11.71;98.75;99326.50;5031111;28;20159;-74
2021/11/05 00:55:26;;;;;;;0.00;0.00;;;;;;;11.71;98.79;99321.91;5030269;28;20022;-74
2021/11/05 00:57:52;;;;;;;0.00;0.00;;;;;;;11.71;99.03;99315.78;5030032;28;20030;-72
2021/11/05 01:00:17;;;;;;;0.00;0.00;;;;;;;11.69;98.90;99305.31;5030966;28;20506;-73
2021/11/05 01:02:44;;;;;;;0.00;0.00;;;;;;;11.75;98.51;99325.63;5031047;28;20384;-73
2021/11/05 01:05:12;;;;;;;0.00;0.00;;;;;;;11.68;98.84;99309.88;5014450;28;20034;-73
2021/11/05 01:07:37;;;;;;;0.00;0.00;;;;;;;11.70;98.46;99306.91;5011744;28;20084;-72
2021/11/05 01:10:04;;;;;;;0.00;0.00;;;;;;;11.76;98.60;99313.84;5022054;28;20441;-72
2021/11/05 01:12:29;;;;;;;0.00;0.00;;;;;;;11.75;98.10;99306.09;5030899;28;20032;-72
2021/11/05 01:14:55;;;;;;;0.00;0.00;;;;;;;11.73;97.93;99306.38;5030275;28;20021;-73
2021/11/05 01:17:20;;;;;;;0.00;0.00;;;;;;;11.65;97.98;99310.41;5030665;28;20021;-73
2021/11/05 01:19:46;;;;;;;0.00;0.00;;;;;;;11.71;98.37;99311.19;5031216;28;20029;-74
2021/11/05 01:22:11;;;;;;;0.00;0.00;;;;;;;11.70;98.33;99301.56;5031356;28;20033;-73
2021/11/05 01:24:37;;;;;;;0.00;0.00;;;;;;;11.71;98.01;99297.00;5030438;28;20466;-72
2021/11/05 01:27:03;;;;;;;0.00;0.00;;;;;;;11.74;97.70;99299.91;5030929;28;20544;-76
2021/11/05 01:29:28;;;;;;;0.00;0.00;;;;;;;11.74;97.73;99299.13;5029813;28;20037;-73
2021/11/05 01:31:54;;;;;;;0.00;0.00;;;;;;;11.73;97.17;99297.53;5030173;28;20029;-73
2021/11/05 01:34:20;;;;;;;0.00;0.00;;;;;;;11.66;97.55;99287.13;5027115;28;20497;-71
2021/11/05 01:36:45;;;;;;;0.00;0.00;;;;;;;11.74;97.37;99302.59;5010018;28;20038;-72
2021/11/05 01:39:11;;;;;;;0.00;0.00;;;;;;;11.72;98.06;99290.56;5021022;28;20108;-71
2021/11/05 01:41:38;;;;;;;0.00;0.00;;;;;;;11.66;97.53;99279.09;5031176;28;20034;-72
2021/11/05 01:44:04;;;;;;;0.00;0.00;;;;;;;11.74;98.02;99286.50;5030812;28;20029;-75
2021/11/05 01:46:29;;;;;;;0.00;0.00;;;;;;;11.69;98.03;99290.06;5027203;28;20102;-74
2021/11/05 01:48:55;;;;;;;0.00;0.00;;;;;;;11.74;98.10;99294.56;5009453;28;20030;-72
2021/11/05 01:51:21;;;;;;;0.00;0.00;;;;;;;11.70;98.04;99293.53;5011404;28;20026;-74
2021/11/05 01:53:47;;;;;;;0.00;0.00;;;;;;;11.71;97.53;99294.34;5020867;28;20028;-73
2021/11/05 01:56:12;;;;;;;0.17;0.17;;;;;;;11.65;98.22;99288.97;5030327;28;20112;-73
2021/11/05 01:58:38;;;;;;;0.00;0.00;;;;;;;11.73;98.48;99301.03;5031031;28;20025;-73
2021/11/05 02:01:04;;;;;;;0.00;0.00;;;;;;;11.71;97.67;99297.00;5030001;28;20080;-73
2021/11/05 02:03:30;;;;;;;0.00;0.00;;;;;;;11.66;97.52;99282.56;5030522;28;20053;-74
2021/11/05 02:05:59;;;;;;;0.00;0.00;;;;;;;11.67;97.65;99286.84;5030532;28;20092;-73
2021/11/05 02:08:26;;;;;;;0.00;0.00;;;;;;;11.61;98.01;99277.22;5030650;28;20047;-71
2021/11/05 02:10:55;;;;;;;0.00;0.00;;;;;;;11.67;98.36;99286.84;5028991;28;20136;-72
2021/11/05 02:13:21;;;;;;;0.00;0.00;;;;;;;11.52;98.32;99276.19;5030286;28;20052;-71
2021/11/05 02:15:48;;;;;;;0.00;0.00;;;;;;;11.48;99.09;99284.00;5029250;28;20033;-71
2021/11/05 02:18:14;;;;;;;0.00;0.00;;;;;;;11.50;99.60;99294.44;5019218;28;20116;-72
2021/11/05 02:20:41;;;;;;;0.30;0.30;;;;;;;11.45;99.60;99283.72;5023929;28;20044;-71
2021/11/05 02:23:07;;;;;;;0.00;0.00;;;;;;;11.46;99.79;99277.31;5030250;28;20030;-72
2021/11/05 02:25:32;;;;;;;0.00;0.00;;;;;;;11.49;99.92;99295.53;5030594;28;20094;-71
2021/11/05 02:27:59;;;;;;;0.00;0.00;;;;;;;11.38;100.00;99289.41;5033932;28;20018;-73
2021/11/05 02:30:24;;;;;;;0.00;0.00;;;;;;;11.34;100.00;99294.50;5034116;28;20390;-70
2021/11/05 02:32:50;;;;;;;0.00;0.00;;;;;;;11.38;100.00;99295.56;5029368;28;20037;-69
2021/11/05 02:35:16;;;;;;;0.00;0.00;;;;;;;11.31;100.00;99286.22;5014458;28;20029;-72
2021/11/05 02:37:43;;;;;;;0.00;0.00;;;;;;;11.41;100.00;99312.16;5014494;28;20030;-72
2021/11/05 02:40:10;;;;;;;0.00;0.00;;;;;;;11.36;100.00;99311.09;5014060;28;20045;-71
2021/11/05 02:42:35;;;;;;;0.00;0.00;;;;;;;11.37;100.00;99304.66;5016895;28;20064;-72
2021/11/05 02:45:03;;;;;;;0.00;0.00;;;;;;;11.32;100.00;99299.31;5033712;28;20030;-72
2021/11/05 02:47:28;;;;;;;0.00;0.00;;;;;;;11.31;100.00;99294.25;5032215;28;20045;-73
2021/11/05 02:49:58;;;;;;;0.00;0.00;;;;;;;11.25;100.00;99279.28;5033910;28;20021;-72
2021/11/05 02:52:24;;;;;;;0.00;0.00;;;;;;;11.34;100.00;99299.88;5034049;28;20030;-73
2021/11/05 02:54:50;;;;;;;0.00;0.00;;;;;;;11.19;100.00;99283.84;5033948;28;20513;-72
2021/11/05 02:57:16;;;;;;;0.10;0.10;;;;;;;11.21;100.00;99301.25;5032918;28;20057;-71
2021/11/05 02:59:41;;;;;;;0.00;0.00;;;;;;;11.32;100.00;99306.56;5033715;28;20029;-72
2021/11/05 03:02:08;;;;;;;0.00;0.00;;;;;;;11.29;100.00;99309.78;5032337;28;20036;-72
2021/11/05 03:04:34;;;;;;;0.00;0.00;;;;;;;11.18;100.00;99301.81;5033533;28;20063;-72
2021/11/05 03:07:02;;;;;;;0.00;0.00;;;;;;;11.21;100.00;99311.94;5033801;28;20057;-73
2021/11/05 03:09:32;;;;;;;0.05;0.05;;;;;;;11.20;100.00;99321.09;5033273;28;20026;-72
2021/11/05 03:11:57;;;;;;;0.10;0.10;;;;;;;11.21;100.00;99325.34;5031637;28;20102;-72
2021/11/05 03:14:23;;;;;;;0.10;0.10;;;;;;;11.13;100.00;99309.84;5033266;28;20029;-73
2021/11/05 03:16:49;;;;;;;0.22;0.22;;;;;;;11.21;100.00;99324.53;5031783;28;20029;-72
2021/11/05 03:19:14;;;;;;;0.00;0.00;;;;;;;11.18;100.00;99319.72;5033400;28;20075;-73
2021/11/05 03:21:40;;;;;;;0.17;0.17;;;;;;;11.15;100.00;99314.94;5032210;28;20044;-73
2021/11/05 03:24:06;;;;;;;0.00;0.00;;;;;;;11.15;100.00;99310.38;5033242;28;20042;-72
2021/11/05 03:26:32;;;;;;;0.00;0.00;;;;;;;11.17;100.00;99318.94;5032719;28;20119;-74
2021/11/05 03:28:57;;;;;;;0.00;0.00;;;;;;;11.12;100.00;99302.91;5033164;28;20084;-73
2021/11/05 03:31:22;;;;;;;0.00;0.00;;;;;;;11.08;100.00;99293.00;5033671;28;20490;-73
2021/11/05 03:33:48;;;;;;;0.00;0.00;;;;;;;11.10;100.00;99302.38;5032690;28;20556;-73
2021/11/05 03:36:14;;;;;;;0.10;0.10;;;;;;;11.13;100.00;99307.19;5033051;28;20048;-75
2021/11/05 03:38:40;;;;;;;0.00;0.00;;;;;;;11.13;100.00;99309.03;5030873;28;20021;-75
2021/11/05 03:41:05;;;;;;;0.00;0.00;;;;;;;11.12;100.00;99302.91;5030840;28;20037;-75
2021/11/05 03:43:31;;;;;;;0.00;0.00;;;;;;;11.13;100.00;99301.81;5032907;28;20049;-73
2021/11/05 03:45:56;;;;;;;0.45;0.45;;;;;;;11.14;100.00;99294.59;5030459;28;20022;-73
2021/11/05 03:48:22;;;;;;;0.00;0.00;;;;;;;11.21;100.00;99300.44;5012956;28;20030;-73
2021/11/05 03:50:47;;;;;;;0.00;0.00;;;;;;;11.17;100.00;99288.69;5013266;28;20022;-73
2021/11/05 03:53:13;;;;;;;0.00;0.00;;;;;;;11.20;100.00;99304.19;5012884;28;20036;-74
2021/11/05 03:55:38;;;;;;;0.00;0.00;;;;;;;11.23;100.00;99318.91;5021808;28;20421;-73
2021/11/05 03:58:03;;;;;;;0.00;0.00;;;;;;;11.28;100.00;99327.72;5032366;28;20021;-73
2021/11/05 04:00:29;;;;;;;0.00;0.00;;;;;;;11.27;100.00;99311.97;5032702;28;20025;-72
2021/11/05 04:02:54;;;;;;;0.00;0.00;;;;;;;11.27;100.00;99298.56;5031667;28;20037;-72
2021/11/05 04:05:20;;;;;;;0.00;0.00;;;;;;;11.30;100.00;99285.44;5032598;28;20033;-72
2021/11/05 04:07:45;;;;;;;0.00;0.00;;;;;;;11.28;100.00;99281.41;5032898;28;20033;-71
2021/11/05 04:10:11;;;;;;;0.20;0.17;;;;;;;11.31;100.00;99287.00;5032433;28;20025;-72
2021/11/05 04:12:37;;;;;;;0.10;0.10;;;;;;;11.34;100.00;99294.50;5023477;28;20026;-73
2021/11/05 04:15:04;;;;;;;0.00;0.00;;;;;;;11.24;100.00;99281.16;5031038;28;20487;-73
2021/11/05 04:17:29;;;;;;;0.00;0.00;;;;;;;11.30;100.00;99295.31;5031533;28;20029;-74
2021/11/05 04:19:55;;;;;;;0.00;0.00;;;;;;;11.34;100.00;99309.78;5031566;28;20022;-74
2021/11/05 04:22:20;;;;;;;0.00;0.00;;;;;;;11.32;100.00;99312.72;5032183;28;20053;-74
2021/11/05 04:24:45;;;;;;;0.00;0.00;;;;;;;11.22;100.00;99302.06;5031774;28;20478;-74
2021/11/05 04:27:11;;;;;;;0.00;0.00;;;;;;;11.26;100.00;99313.03;5031205;28;20029;-72
2021/11/05 04:29:37;;;;;;;0.00;0.00;;;;;;;11.22;100.00;99315.44;5030820;28;20518;-72
2021/11/05 04:32:04;;;;;;;0.00;0.00;;;;;;;11.26;100.00;99315.69;5030565;28;20036;-72
2021/11/05 04:34:29;;;;;;;0.47;0.47;;;;;;;11.20;100.00;99310.38;5011354;28;20026;-73
2021/11/05 04:36:55;;;;;;;0.00;0.00;;;;;;;11.16;100.00;99309.31;5012150;28;20037;-74
2021/11/05 04:39:24;;;;;;;0.00;0.00;;;;;;;11.12;100.00;99307.44;5020840;28;20029;-73
2021/11/05 04:41:49;;;;;;;;;;;;;;;11.21;100.00;99322.66;5030884;28;20033;-74
2021/11/05 04:44:15;;;;;;;0.00;0.00;;;;;;;11.11;100.00;99312.00;5030313;28;19913;-74
2021/11/05 04:46:41;;;;;;;0.00;0.00;;;;;;;11.15;100.00;99313.03;5031570;28;20034;-75
2021/11/05 04:49:06;;;;;;;0.00;0.00;;;;;;;11.10;100.00;99296.22;5030416;28;20044;-75
2021/11/05 04:51:32;;;;;;;0.00;0.00;;;;;;;11.14;100.00;99308.75;5031554;28;20037;-76
2021/11/05 04:53:58;;;;;;;0.00;0.00;;;;;;;11.19;100.00;99316.78;5031121;28;20383;-71
2021/11/05 04:56:24;;;;;;;0.05;0.05;;;;;;;11.12;100.00;99304.75;5031566;28;20025;-72
2021/11/05 04:58:49;;;;;;;0.00;0.00;;;;;;;11.12;100.00;99313.59;5030922;28;20483;-73
2021/11/05 05:01:15;;;;;;;1.13;0.80;;;;;;;11.13;100.00;99317.06;5030987;28;20025;-80
2021/11/05 05:03:41;;;;;;;0.00;0.00;;;;;;;11.13;100.00;99325.09;5029402;28;20099;-73
2021/11/05 05:06:06;;;;;;;0.00;0.00;;;;;;;11.11;100.00;99311.19;5029927;28;20032;-74
2021/11/05 05:08:32;;;;;;;0.00;0.00;;;;;;;11.14;100.00;99329.38;5031444;28;20042;-73
2021/11/05 05:10:57;;;;;;;0.00;0.00;;;;;;;11.09;100.00;99321.38;5030827;28;20039;-73
2021/11/05 05:13:22;;;;;;;0.00;0.00;;;;;;;11.15;100.00;99342.50;5030954;28;20026;-73
2021/11/05 05:15:49;;;;;;;0.15;0.15;;;;;;;11.10;100.00;99317.63;5029970;28;20406;-72
2021/11/05 05:18:15;;;;;;;0.10;0.10;;;;;;;11.19;100.00;99330.19;5028995;28;20025;-74
2021/11/05 05:20:45;;;;;;;0.00;0.00;;;;;;;11.21;100.00;99336.03;5028416;28;20033;-73
2021/11/05 05:23:12;;;;;;;0.00;0.00;;;;;;;11.16;100.00;99329.94;5025369;28;20105;-73
2021/11/05 05:25:38;;;;;;;0.00;0.00;;;;;;;11.19;100.00;99330.19;5029015;28;20120;-73
2021/11/05 05:28:04;;;;;;;0.00;0.00;;;;;;;11.13;100.00;99327.78;5028522;28;20116;-75
2021/11/05 05:30:30;;;;;;;0.00;0.00;;;;;;;11.15;100.00;99333.66;5030362;28;20116;-75
2021/11/05 05:32:55;;;;;;;0.10;0.10;;;;;;;11.14;100.00;99335.53;5045878;28;20032;-75
2021/11/05 05:35:21;;;;;;;0.00;0.00;;;;;;;11.16;100.00;99352.13;5030299;28;20026;-75
2021/11/05 05:37:48;;;;;;;0.10;0.10;;;;;;;11.17;100.00;99339.56;5029018;28;20029;-75
2021/11/05 05:40:14;;;;;;;0.28;0.28;;;;;;;11.09;100.00;99326.72;5028818;28;20109;-75
2021/11/05 05:42:41;;;;;;;0.00;0.00;;;;;;;11.15;100.00;99339.03;5029118;28;20053;-76
2021/11/05 05:45:08;;;;;;;0.00;0.00;;;;;;;11.21;100.00;99340.59;5028854;28;20021;-76
2021/11/05 05:47:35;;;;;;;0.13;0.13;;;;;;;11.23;100.00;99340.34;5029401;28;20087;-74
2021/11/05 05:50:03;;;;;;;0.10;0.10;;;;;;;11.27;100.00;99354.78;5028920;28;20431;-74
2021/11/05 05:52:29;;;;;;;0.43;0.43;;;;;;;11.28;100.00;99354.50;5030696;28;20490;-76
2021/11/05 05:54:54;;;;;;;0.00;0.00;;;;;;;11.36;100.00;99364.66;5029235;28;20068;-76
2021/11/05 05:57:19;;;;;;;0.00;0.00;;;;;;;11.32;100.00;99346.75;5030370;28;20038;-76
2021/11/05 05:59:45;;;;;;;0.00;0.00;;;;;;;11.48;100.00;99367.00;5029293;28;20026;-76
2021/11/05 06:02:10;;;;;;;0.00;0.00;;;;;;;11.43;100.00;99352.84;5035783;28;20452;-76
2021/11/05 06:04:37;;;;;;;0.00;0.00;;;;;;;11.44;100.00;99347.22;5035988;28;20030;-76
2021/11/05 06:07:03;;;;;;;0.00;0.00;;;;;;;11.57;100.00;99363.78;5035799;28;20029;-76
2021/11/05 06:09:29;;;;;;;0.00;0.00;;;;;;;11.51;100.00;99350.41;5035855;28;20033;-76
2021/11/05 06:11:54;;;;;;;0.00;0.00;;;;;;;11.62;100.00;99372.59;5037130;28;20052;-75
2021/11/05 06:14:20;;;;;;;0.00;0.00;;;;;;;11.67;100.00;99371.78;5035489;28;20726;-76
2021/11/05 06:16:45;;;;;;;0.10;0.10;;;;;;;11.65;100.00;99371.25;5035794;28;20410;-76
2021/11/05 06:19:10;;;;;;;0.00;0.00;;;;;;;11.59;100.00;99362.41;5036711;28;20104;-75
2021/11/05 06:21:36;;;;;;;0.00;0.00;;;;;;;11.63;100.00;99384.09;5035886;28;20065;-76
2021/11/05 06:24:02;;;;;;;0.25;0.25;;;;;;;11.63;100.00;99378.75;5036629;28;20029;-75
2021/11/05 06:26:27;;;;;;;0.00;0.00;;;;;;;11.61;100.00;99368.31;5037380;28;20135;-76
2021/11/05 06:28:52;;;;;;;0.00;0.00;;;;;;;11.59;100.00;99365.09;5035697;28;20026;-77
2021/11/05 06:31:18;;;;;;;0.00;0.00;;;;;;;11.62;100.00;99361.88;5035480;28;20044;-77
2021/11/05 06:33:44;;;;;;;0.22;0.22;;;;;;;11.67;100.00;99379.81;5035752;28;20112;-77
2021/11/05 06:36:09;;;;;;;0.00;0.00;;;;;;;11.63;100.00;99376.06;5036811;28;20021;-76
2021/11/05 06:38:35;;;;;;;0.00;0.00;;;;;;;11.65;100.00;99380.06;5035806;28;20055;-76
2021/11/05 06:41:00;;;;;;;0.00;0.00;;;;;;;11.68;100.00;99390.25;5035719;28;20033;-76
2021/11/05 06:43:26;;;;;;;0.00;0.00;;;;;;;11.70;100.00;99389.97;5035249;28;20054;-76
2021/11/05 06:45:51;;;;;;;0.00;0.00;;;;;;;11.73;100.00;99378.72;5035496;28;20108;-76
2021/11/05 06:48:17;;;;;;;0.00;0.00;;;;;;;11.71;100.00;99370.16;5035017;28;20032;-76
2021/11/05 06:50:42;;;;;;;0.00;0.00;;;;;;;11.82;100.00;99389.66;5035054;28;20025;-76
2021/11/05 06:53:10;;;;;;;0.00;0.00;;;;;;;11.85;100.00;99397.94;5036423;28;20128;-76
2021/11/05 06:55:36;;;;;;;0.00;0.00;;;;;;;11.88;100.00;99391.22;5035365;28;20075;-76
2021/11/05 06:58:03;;;;;;;0.00;0.00;;;;;;;11.96;100.00;99392.53;5035484;28;20079;-76
2021/11/05 07:00:28;;;;;;;0.28;0.28;;;;;;;12.00;100.00;99398.97;5035233;28;20038;-76
2021/11/05 07:02:54;;;;;;;0.00;0.00;;;;;;;11.98;100.00;99379.69;5035525;28;20071;-76
2021/11/05 07:05:19;;;;;;;0.00;0.00;;;;;;;12.04;100.00;99388.50;5035245;28;20033;-76
2021/11/05 07:07:45;;;;;;;0.00;0.00;;;;;;;12.11;100.00;99389.00;5035492;28;20051;-76
2021/11/05 07:10:12;;;;;;;0.10;0.10;;;;;;;12.13;100.00;99394.88;5036180;28;20025;-76
2021/11/05 07:12:39;;;;;;;0.00;0.00;;;;;;;12.16;100.00;99403.16;5033893;28;20273;-76
2021/11/05 07:15:07;;;;;;;0.00;0.00;;;;;;;12.14;100.00;99399.16;5032133;28;20614;-76
2021/11/05 07:17:32;;;;;;;0.40;0.40;;;;;;;12.04;100.00;99388.50;5032458;28;20060;-76
2021/11/05 07:19:58;;;;;;;0.00;0.00;;;;;;;12.10;100.00;99398.13;5049093;28;20761;-76
2021/11/05 07:22:24;;;;;;;0.00;0.00;;;;;;;12.12;100.00;99402.13;5033024;28;20108;-76
2021/11/05 07:24:52;;;;;;;0.00;0.00;;;;;;;12.14;100.00;99402.63;5032400;28;20407;-76
2021/11/05 07:27:17;;;;;;;0.00;0.00;;;;;;;12.12;100.00;99393.25;5031811;28;20083;-75
2021/11/05 07:29:43;;;;;;;0.00;0.00;;;;;;;12.13;100.00;99409.09;5032057;28;20057;-75
2021/11/05 07:32:09;;;;;;;0.00;0.00;;;;;;;12.13;100.00;99406.41;5031786;28;20395;-76
2021/11/05 07:34:36;;;;;;;0.13;0.13;;;;;;;12.05;100.00;99398.94;5031685;28;20034;-76
2021/11/05 07:37:08;;;;;;;0.00;0.00;;;;;;;11.94;100.00;99383.97;5032042;28;20025;-76
2021/11/05 07:39:34;;;;;;;0.00;0.00;;;;;;;11.96;100.00;99393.38;5031729;28;20033;-75
2021/11/05 07:41:59;;;;;;;0.22;0.22;;;;;;;11.93;100.00;99388.50;5032732;28;20555;-75
2021/11/05 07:44:25;;;;;;;0.47;0.47;;;;;;;11.96;100.00;99395.19;5033290;28;20029;-75
2021/11/05 07:46:50;;;;;;;0.10;0.10;;;;;;;11.96;100.00;99400.56;5031761;28;20120;-75
2021/11/05 07:49:16;;;;;;;0.00;0.00;;;;;;;11.97;100.00;99396.84;5031518;28;20495;-75
2021/11/05 07:51:42;;;;;;;0.10;0.10;;;;;;;12.01;100.00;99387.16;5031671;28;20037;-76
2021/11/05 07:54:08;;;;;;;0.17;0.17;;;;;;;12.01;100.00;99387.97;5031398;28;20603;-76
2021/11/05 07:56:34;;;;;;;0.00;0.00;;;;;;;12.03;100.00;99392.25;5031370;28;20478;-75
2021/11/05 07:59:01;;;;;;;0.00;0.00;;;;;;;11.99;100.00;99390.13;5031380;28;20060;-75
2021/11/05 08:01:27;;;;;;;0.00;0.00;;;;;;;12.06;100.00;99394.38;5031185;28;20458;-75
2021/11/05 08:03:52;;;;;;;0.00;0.00;;;;;;;12.08;100.00;99393.00;5032733;28;20112;-75
2021/11/05 08:06:17;;;;;;;0.00;0.00;;;;;;;12.12;100.00;99390.59;5030971;28;20379;-75
2021/11/05 08:08:43;;;;;;;0.00;0.00;;;;;;;12.15;100.00;99385.47;5030999;28;20544;-75
2021/11/05 08:11:10;;;;;;;0.00;0.00;;;;;;;12.22;100.00;99385.16;5031534;28;20052;-75
2021/11/05 08:13:36;;;;;;;0.00;0.00;;;;;;;12.26;100.00;99382.72;5030999;28;20030;-75
2021/11/05 08:16:02;;;;;;;0.00;0.00;;;;;;;12.30;100.00;99394.50;5031167;28;20031;-76
2021/11/05 08:18:27;;;;;;;0.00;0.00;;;;;;;12.35;100.00;99401.72;5030671;28;20498;-76
2021/11/05 08:20:53;;;;;;;0.00;0.00;;;;;;;12.35;100.00;99399.03;5032201;28;20072;-76
2021/11/05 08:23:18;;;;;;;0.00;0.00;;;;;;;12.36;100.00;99406.78;5031861;28;20025;-76
2021/11/05 08:25:47;;;;;;;0.00;0.00;;;;;;;12.46;100.00;99422.81;5030883;28;20486;-76
2021/11/05 08:28:13;;;;;;;0.00;0.00;;;;;;;12.53;100.00;99422.50;5030761;28;20033;-76
2021/11/05 08:30:38;;;;;;;0.20;0.20;;;;;;;12.57;100.00;99428.94;5030869;28;20030;-76
2021/11/05 08:33:04;;;;;;;0.00;0.00;;;;;;;12.57;100.00;99420.88;5031839;28;20502;-76
2021/11/05 08:35:31;;;;;;;0.00;0.00;;;;;;;12.63;100.00;99430.50;5031686;28;20053;-76
2021/11/05 08:37:57;;;;;;;0.00;0.00;;;;;;;12.56;100.00;99413.91;5032449;28;20029;-76
2021/11/05 08:40:22;;;;;;;0.00;0.00;;;;;;;12.56;100.00;99421.13;5030455;28;20088;-77
2021/11/05 08:42:49;;;;;;;0.00;0.00;;;;;;;12.51;100.00;99421.97;5032000;28;20529;-76
2021/11/05 08:45:15;;;;;;;0.22;0.22;;;;;;;12.51;100.00;99430.00;5030328;28;20096;-76
2021/11/05 08:47:42;;;;;;;0.10;0.10;;;;;;;12.52;100.00;99433.50;5030546;28;20025;-76
2021/11/05 08:50:12;;;;;;;0.10;0.10;;;;;;;12.53;100.00;99433.22;5031832;28;20120;-76
2021/11/05 08:52:39;;;;;;;0.00;0.00;;;;;;;12.51;100.00;99430.00;5030566;28;20029;-76
2021/11/05 08:55:06;;;;;;;0.10;0.10;;;;;;;12.50;100.00;99439.16;5030539;28;20049;-76
2021/11/05 08:57:34;;;;;;;0.00;0.00;;;;;;;12.42;99.96;99429.03;5030350;28;20410;-76
2021/11/05 09:00:01;;;;;;;0.00;0.00;;;;;;;12.37;100.00;99429.84;5030490;28;20375;-75
2021/11/05 09:02:27;;;;;;;0.00;0.00;;;;;;;12.26;100.00;99415.69;5030229;28;20033;-76
2021/11/05 09:04:54;;;;;;;0.00;0.00;;;;;;;12.37;100.00;99423.69;5030312;28;20021;-76
2021/11/05 09:07:19;;;;;;;0.03;0.03;;;;;;;12.34;100.00;99417.00;5030126;28;20076;-75
2021/11/05 09:09:44;;;;;;;0.00;0.00;;;;;;;12.36;100.00;99425.56;5030303;28;20503;-75
2021/11/05 09:12:10;;;;;;;0.00;0.00;;;;;;;12.44;100.00;99424.19;5030067;28;20037;-76
2021/11/05 09:14:35;;;;;;;0.00;0.00;;;;;;;12.47;100.00;99418.25;5030125;28;20036;-76
2021/11/05 09:17:02;;;;;;;0.00;0.00;;;;;;;12.45;100.00;99407.81;5030226;28;20034;-76
2021/11/05 09:19:27;;;;;;;0.00;0.00;;;;;;;12.52;100.00;99420.88;5031173;28;20521;-76
2021/11/05 09:21:53;;;;;;;0.10;0.10;;;;;;;12.48;99.53;99409.91;5030057;28;20128;-76
2021/11/05 09:24:19;;;;;;;0.00;0.00;;;;;;;12.55;99.82;99414.16;5029719;28;20080;-76
2021/11/05 09:26:44;;;;;;;0.00;0.00;;;;;;;12.57;100.00;99420.06;5029469;28;20036;-76
2021/11/05 09:29:10;;;;;;;0.00;0.00;;;;;;;12.55;99.72;99398.88;5030877;28;20030;-76
2021/11/05 09:31:35;;;;;;;0.00;0.00;;;;;;;12.58;99.22;99395.63;5030945;28;20033;-76
2021/11/05 09:34:00;;;;;;;0.00;0.00;;;;;;;12.59;99.61;99404.50;5029680;28;20021;-77
2021/11/05 09:36:26;;;;;;;0.00;0.00;;;;;;;12.57;98.90;99394.03;5028781;28;20119;-75
2021/11/05 09:38:51;;;;;;;0.00;0.00;;;;;;;12.55;99.30;99388.16;5029759;28;20028;-75
2021/11/05 09:41:17;;;;;;;0.00;0.00;;;;;;;12.58;100.00;99395.63;5029376;28;20090;-76
2021/11/05 09:43:43;;;;;;;0.00;0.00;;;;;;;12.50;99.25;99372.09;5029379;28;20052;-75
2021/11/05 09:46:09;;;;;;;0.15;0.15;;;;;;;12.56;99.31;99388.94;5030756;28;20032;-76
2021/11/05 09:48:37;;;;;;;0.00;0.00;;;;;;;12.58;99.67;99390.25;5030731;28;20037;-75
2021/11/05 09:51:05;;;;;;;0.10;0.10;;;;;;;12.70;100.00;99400.63;5046395;28;20124;-75
2021/11/05 09:53:35;;;;;;;0.00;0.00;;;;;;;12.72;99.89;99403.03;5030628;28;20188;-75
2021/11/05 09:56:01;;;;;;;0.05;0.05;;;;;;;12.73;99.96;99393.91;5029540;28;20033;-76
2021/11/05 09:58:27;;;;;;;0.00;0.00;;;;;;;12.78;99.44;99397.34;5029297;28;20033;-75
2021/11/05 10:00:52;;;;;;;0.10;0.10;;;;;;;12.84;99.42;99384.69;5030830;28;20055;-76
2021/11/05 10:03:18;;;;;;;0.35;0.35;;;;;;;12.88;99.52;99384.94;5029281;28;20072;-76
2021/11/05 10:05:44;;;;;;;0.00;0.00;;;;;;;12.91;98.84;99385.13;5029495;28;20044;-77
2021/11/05 10:08:09;;;;;;;0.03;0.03;;;;;;;12.97;99.04;99380.53;5029521;28;20026;-77
2021/11/05 10:10:40;;;;;;;0.00;0.00;;;;;;;13.01;99.05;99373.53;5029231;28;20447;-75
2021/11/05 10:13:08;;;;;;;0.40;0.40;;;;;;;13.12;99.44;99379.56;5029358;28;20116;-76
2021/11/05 10:15:46;;;;;;;0.15;0.15;;;;;;;13.13;99.10;99365.88;5029286;28;20401;-76
2021/11/05 10:18:14;;;;;;;;;;;;;;;13.27;98.74;99359.84;5031492;28;20060;-76
2021/11/05 10:20:39;;;;;;;0.00;0.00;;;;;;;13.27;98.85;99357.16;5030790;28;19967;-76
2021/11/05 10:23:06;;;;;;;0.25;0.25;;;;;;;13.26;98.20;99345.59;5029436;28;20037;-76
2021/11/05 10:25:39;;;;;;;0.52;0.52;;;;;;;13.28;97.42;99345.28;5029037;28;20049;-76
2021/11/05 10:28:13;;;;;;;0.00;0.00;;;;;;;13.35;97.36;99343.06;5029207;28;20033;-76
2021/11/05 10:30:42;;;;;;;0.52;0.52;;;;;;;13.38;97.26;99347.13;5030496;28;20059;-75
2021/11/05 10:33:10;;;;;;;0.00;0.00;;;;;;;13.41;97.46;99339.25;5029247;28;20036;-76
2021/11/05 10:35:41;;;;;;;0.00;0.00;;;;;;;13.43;96.77;99328.25;5029081;28;20486;-76
2021/11/05 10:38:09;;;;;;;0.00;0.00;;;;;;;13.45;96.93;99334.94;5030317;28;20029;-76
2021/11/05 10:40:42;;;;;;;0.57;0.57;;;;;;;13.49;96.25;99335.16;5045525;28;20033;-76
2021/11/05 10:43:09;;;;;;;0.30;0.30;;;;;;;13.47;96.53;99320.41;5030481;28;20053;-76
2021/11/05 10:45:37;;;;;;;0.55;0.45;;;;;;;13.52;96.52;99334.56;5029056;28;20418;-76
2021/11/05 10:48:06;;;;;;;0.17;0.17;;;;;;;13.41;96.39;99325.81;5033116;28;20588;-76
2021/11/05 10:50:37;;;;;;;0.38;0.38;;;;;;;13.44;97.06;99335.22;5032513;28;20064;-76
2021/11/05 10:53:14;;;;;;;0.93;0.93;;;;;;;13.41;96.97;99333.88;5032645;28;20029;-76
2021/11/05 10:55:57;;;;;;;0.20;0.20;;;;;;;13.44;96.70;99324.47;5032864;28;20079;-76
2021/11/05 10:58:33;;;;;;;0.20;0.20;;;;;;;13.44;96.98;99303.78;5032483;28;20044;-76
2021/11/05 11:01:01;;;;;;;0.00;0.00;;;;;;;13.39;97.25;99287.72;5032564;28;20037;-76
2021/11/05 11:03:32;;;;;;;1.30;1.08;;;;;;;13.48;97.06;99295.16;5032335;28;20478;-76
2021/11/05 11:06:12;;;;;;;0.00;0.00;;;;;;;13.54;97.30;99308.22;5032362;28;20030;-76
2021/11/05 11:08:42;;;;;;;0.10;0.10;;;;;;;13.61;97.15;99302.50;5033320;28;20056;-76
2021/11/05 11:11:24;;;;;;;0.20;0.20;;;;;;;13.70;96.86;99299.94;5032272;28;20108;-76
2021/11/05 11:13:53;;;;;;;0.10;0.10;;;;;;;13.75;95.92;99291.81;5032172;28;20036;-76
2021/11/05 11:16:23;;;;;;;0.40;0.40;;;;;;;13.83;96.11;99296.53;5031948;28;20036;-76
2021/11/05 11:18:59;;;;;;;0.00;0.00;;;;;;;13.88;95.86;99288.38;5033229;28;20502;-76
2021/11/05 11:21:33;;;;;;;0.30;0.30;;;;;;;13.89;95.84;99273.88;5031862;28;20033;-76
2021/11/05 11:23:58;;;;;;;0.00;0.00;;;;;;;14.02;94.98;99282.28;5032104;28;20128;-76
2021/11/05 11:26:26;;;;;;;0.00;0.00;;;;;;;14.11;95.03;99277.84;5033244;28;20530;-76